createdAt,value
2022-09-14T00:01:14.273Z,96276.56
2022-09-14T00:03:39.782Z,96280.03
2022-09-14T00:06:12.112Z,96288.41
2022-09-14T00:08:39.561Z,96290.47
2022-09-14T00:11:12.275Z,96274.44
2022-09-14T00:13:41.039Z,96296.66
2022-09-14T00:16:12.854Z,96272.31
2022-09-14T00:18:39.871Z,96258.44
2022-09-14T00:21:08.528Z,96250.81
2022-09-14T00:23:36.520Z,96266.78
2022-09-14T00:26:11.273Z,96259.13
2022-09-14T00:28:43.207Z,96278.50
2022-09-14T00:31:10.760Z,96249.25
2022-09-14T00:33:38.384Z,96246.47
2022-09-14T00:36:06.968Z,96250.69
2022-09-14T00:38:33.807Z,96250.69
2022-09-14T00:41:01.410Z,96243.69
2022-09-14T00:43:28.264Z,96235.41
2022-09-14T00:45:55.123Z,96212.47
2022-09-14T00:48:24.646Z,96212.41
2022-09-14T00:50:52.091Z,96199.19
2022-09-14T00:53:18.807Z,96201.88
2022-09-14T00:55:45.794Z,96215.81
2022-09-14T00:58:12.442Z,96217.84
2022-09-14T01:00:39.180Z,96210.81
2022-09-14T01:03:05.919Z,96211.50
2022-09-14T01:06:22.026Z,96227.41
2022-09-14T01:09:27.193Z,96222.50
2022-09-14T01:12:25.783Z,96216.91
2022-09-14T01:15:17.824Z,96209.28
2022-09-14T01:18:07.926Z,96213.44
2022-09-14T01:20:45.868Z,96212.72
2022-09-14T01:23:39.651Z,96214.16
2022-09-14T01:26:38.331Z,96217.66
2022-09-14T01:29:18.139Z,96209.94
2022-09-14T01:31:52.756Z,96212.03
2022-09-14T01:34:48.681Z,96218.25
2022-09-14T01:37:28.913Z,96215.41
2022-09-14T01:40:01.545Z,96220.34
2022-09-14T01:42:29.324Z,96223.84
2022-09-14T01:45:00.255Z,96223.88
2022-09-14T01:47:39.298Z,96216.91
2022-09-14T01:50:17.594Z,96213.44
2022-09-14T01:52:55.005Z,96223.88
2022-09-14T01:55:32.142Z,96220.44
2022-09-14T01:58:01.501Z,96212.16
2022-09-14T02:00:28.441Z,96213.56
2022-09-14T02:03:10.994Z,96218.41
2022-09-14T02:05:42.796Z,96207.22
2022-09-14T02:08:09.582Z,96209.31
2022-09-14T02:10:36.257Z,96207.91
2022-09-14T02:13:03.088Z,96202.34
2022-09-14T02:15:29.783Z,96207.88
2022-09-14T02:17:56.558Z,96204.41
2022-09-14T02:20:28.958Z,96205.16
2022-09-14T02:22:55.851Z,96200.22
2022-09-14T02:25:22.841Z,96199.50
2022-09-14T02:27:49.854Z,96199.34
2022-09-14T02:30:17.222Z,96207.06
2022-09-14T02:33:02.329Z,96195.94
2022-09-14T02:35:50.110Z,96209.13
2022-09-14T02:38:46.836Z,96203.59
2022-09-14T02:41:58.821Z,96202.13
2022-09-14T02:44:28.491Z,96199.34
2022-09-14T02:47:36.951Z,96202.09
2022-09-14T02:50:30.255Z,96196.56
2022-09-14T02:53:06.074Z,96195.16
2022-09-14T02:55:36.602Z,96197.16
2022-09-14T02:58:10.207Z,96204.03
2022-09-14T03:00:40.360Z,96201.25
2022-09-14T03:03:09.008Z,96203.28
2022-09-14T03:05:36.399Z,96197.09
2022-09-14T03:08:04.063Z,96194.41
2022-09-14T03:10:31.791Z,96186.16
2022-09-14T03:12:58.831Z,96186.16
2022-09-14T03:15:26.160Z,96177.81
2022-09-14T03:17:52.920Z,96169.47
2022-09-14T03:20:27.921Z,96156.97
2022-09-14T03:22:55.179Z,96150.03
2022-09-14T03:25:25.124Z,96135.44
2022-09-14T03:27:53.831Z,96134.69
2022-09-14T03:30:20.778Z,96140.22
2022-09-14T03:32:47.775Z,96143.72
2022-09-14T03:35:20.116Z,96137.38
2022-09-14T03:37:47.961Z,96142.28
2022-09-14T03:40:21.367Z,96138.13
2022-09-14T03:42:50.520Z,96136.00
2022-09-14T03:45:18.348Z,96135.22
2022-09-14T03:47:46.719Z,96159.34
2022-09-14T03:50:14.571Z,96172.94
2022-09-14T03:52:41.442Z,96171.44
2022-09-14T03:55:09.486Z,96161.72
2022-09-14T03:57:37.202Z,96159.59
2022-09-14T04:00:05.695Z,96164.44
2022-09-14T04:02:38.358Z,96172.81
2022-09-14T04:05:05.655Z,96174.13
2022-09-14T04:07:32.366Z,96167.19
2022-09-14T04:09:59.083Z,96164.47
2022-09-14T04:12:25.785Z,96166.63
2022-09-14T04:14:52.422Z,96166.56
2022-09-14T04:17:19.214Z,96172.13
2022-09-14T04:19:45.886Z,96173.53
2022-09-14T04:22:12.610Z,96171.47
2022-09-14T04:24:39.265Z,96167.97
2022-09-14T04:27:06.106Z,96163.78
2022-09-14T04:29:33.195Z,96162.31
2022-09-14T04:32:01.734Z,96167.09
2022-09-14T04:34:28.386Z,96161.50
2022-09-14T04:36:55.259Z,96153.91
2022-09-14T04:39:22.392Z,96152.50
2022-09-14T04:41:49.220Z,96148.94
2022-09-14T04:44:16.042Z,96161.34
2022-09-14T04:46:46.579Z,96160.69
2022-09-14T04:49:15.591Z,96162.75
2022-09-14T04:51:42.503Z,96157.13
2022-09-14T04:54:10.002Z,96160.63
2022-09-14T04:56:37.168Z,96155.09
2022-09-14T04:59:05.730Z,96164.84
2022-09-14T05:01:36.374Z,96151.63
2022-09-14T05:04:04.409Z,96159.25
2022-09-14T05:06:32.871Z,96172.44
2022-09-14T05:09:00.480Z,96174.50
2022-09-14T05:11:31.162Z,96171.72
2022-09-14T05:13:59.078Z,96169.72
2022-09-14T05:16:34.025Z,96169.00
2022-09-14T05:19:03.147Z,96167.00
2022-09-14T05:21:31.154Z,96163.47
2022-09-14T05:24:03.839Z,96159.34
2022-09-14T05:26:32.211Z,96158.66
2022-09-14T05:29:04.661Z,96162.13
2022-09-14T05:31:35.976Z,96162.13
2022-09-14T05:34:14.937Z,96155.28
2022-09-14T05:36:52.705Z,96160.91
2022-09-14T05:39:23.427Z,96158.06
2022-09-14T05:41:53.629Z,96158.78
2022-09-14T05:44:28.940Z,96162.31
2022-09-14T05:47:02.480Z,96157.47
2022-09-14T05:49:33.541Z,96150.47
2022-09-14T05:52:04.885Z,96146.34
2022-09-14T05:54:36.968Z,96146.97
2022-09-14T05:57:17.712Z,96149.75
2022-09-14T05:59:48.639Z,96145.59
2022-09-14T06:02:26.579Z,96149.72
2022-09-14T06:04:57.896Z,96146.16
2022-09-14T06:07:25.439Z,96148.25
2022-09-14T06:09:52.093Z,96149.69
2022-09-14T06:12:18.818Z,96151.75
2022-09-14T06:14:45.458Z,96151.81
2022-09-14T06:17:12.191Z,96150.47
2022-09-14T06:19:38.835Z,96158.88
2022-09-14T06:22:05.697Z,96152.78
2022-09-14T06:24:41.430Z,96155.66
2022-09-14T06:27:09.256Z,96153.88
2022-09-14T06:29:37.234Z,96152.56
2022-09-14T06:32:04.637Z,96145.78
2022-09-14T06:34:31.450Z,96158.47
2022-09-14T06:36:58.222Z,96153.00
2022-09-14T06:39:24.967Z,96149.00
2022-09-14T06:41:52.070Z,96145.66
2022-09-14T06:44:19.538Z,96147.81
2022-09-14T06:46:47.694Z,96165.97
2022-09-14T06:49:20.721Z,96173.63
2022-09-14T06:51:47.825Z,96177.16
2022-09-14T06:54:15.970Z,96173.13
2022-09-14T06:56:43.980Z,96176.72
2022-09-14T06:59:12.630Z,96190.09
2022-09-14T07:01:40.104Z,96194.44
2022-09-14T07:04:07.054Z,96201.53
2022-09-14T07:06:43.060Z,96213.31
2022-09-14T07:09:10.699Z,96218.09
2022-09-14T07:11:38.350Z,96219.47
2022-09-14T07:14:05.706Z,96214.75
2022-09-14T07:16:33.657Z,96224.00
2022-09-14T07:19:02.983Z,96233.88
2022-09-14T07:21:31.207Z,96221.34
2022-09-14T07:23:58.372Z,96213.09
2022-09-14T07:26:30.818Z,96213.19
2022-09-14T07:29:00.765Z,96214.56
2022-09-14T07:31:33.572Z,96221.63
2022-09-14T07:34:04.663Z,96213.31
2022-09-14T07:36:35.058Z,96207.16
2022-09-14T07:39:04.614Z,96213.63
2022-09-14T07:41:33.116Z,96219.38
2022-09-14T07:44:01.380Z,96202.63
2022-09-14T07:46:29.427Z,96215.19
2022-09-14T07:49:01.278Z,96219.34
2022-09-14T07:51:29.120Z,96231.84
2022-09-14T07:53:55.994Z,96238.94
2022-09-14T07:56:22.798Z,96245.28
2022-09-14T07:58:55.459Z,96232.69
2022-09-14T08:01:26.076Z,96240.41
2022-09-14T08:03:52.852Z,96241.06
2022-09-14T08:06:22.578Z,96217.34
2022-09-14T08:08:51.891Z,96229.81
2022-09-14T08:11:21.386Z,96243.72
2022-09-14T08:14:15.740Z,96251.41
2022-09-14T08:16:42.500Z,96262.59
2022-09-14T08:19:16.778Z,96264.03
2022-09-14T08:21:46.896Z,96261.25
2022-09-14T08:24:19.626Z,96259.91
2022-09-14T08:26:47.197Z,96247.41
2022-09-14T08:29:15.854Z,96248.91
2022-09-14T08:31:45.509Z,96262.94
2022-09-14T08:34:13.352Z,96264.38
2022-09-14T08:36:41.300Z,96256.69
2022-09-14T08:39:09.485Z,96259.53
2022-09-14T08:41:56.370Z,96255.41
2022-09-14T08:44:27.383Z,96242.13
2022-09-14T08:47:05.980Z,96236.53
2022-09-14T08:49:46.053Z,96242.81
2022-09-14T08:52:22.679Z,96242.81
2022-09-14T08:54:54.179Z,96239.34
2022-09-14T08:57:43.086Z,96226.75
2022-09-14T09:00:14.334Z,96225.31
2022-09-14T09:03:09.191Z,96233.72
2022-09-14T09:05:43.830Z,96243.53
2022-09-14T09:08:37.004Z,96236.53
2022-09-14T09:11:05.743Z,96234.44
2022-09-14T09:13:36.546Z,96229.53
2022-09-14T09:16:05.371Z,96219.75
2022-09-14T09:18:50.572Z,96221.13
2022-09-14T09:21:23.600Z,96221.06
2022-09-14T09:23:50.322Z,96225.94
2022-09-14T09:26:28.243Z,96212.66
2022-09-14T09:28:57.581Z,96212.63
2022-09-14T09:31:36.385Z,96214.03
2022-09-14T09:34:30.085Z,96207.75
2022-09-14T09:37:23.271Z,96207.78
2022-09-14T09:39:51.174Z,96208.50
2022-09-14T09:42:23.478Z,96203.63
2022-09-14T09:45:04.371Z,96211.34
2022-09-14T09:47:34.950Z,96197.38
2022-09-14T09:50:17.367Z,96199.53
2022-09-14T09:53:04.589Z,96202.25
2022-09-14T09:55:37.755Z,96207.06
2022-09-14T09:58:25.944Z,96206.97
2022-09-14T10:00:58.462Z,96201.34
2022-09-14T10:03:52.863Z,96196.53
2022-09-14T10:06:19.599Z,96182.66
2022-09-14T10:08:49.084Z,96179.91
2022-09-14T10:11:37.811Z,96184.78
2022-09-14T10:14:05.858Z,96179.81
2022-09-14T10:16:39.090Z,96186.72
2022-09-14T10:19:14.461Z,96174.81
2022-09-14T10:22:24.297Z,96177.53
2022-09-14T10:24:55.998Z,96182.91
2022-09-14T10:27:42.574Z,96175.91
2022-09-14T10:30:34.602Z,96174.47
2022-09-14T10:33:06.658Z,96182.78
2022-09-14T10:35:42.983Z,96214.63
2022-09-14T10:38:30.980Z,96231.06
2022-09-14T10:41:23.593Z,96214.88
2022-09-14T10:43:58.134Z,96206.94
2022-09-14T10:46:30.753Z,96251.19
2022-09-14T10:49:10.241Z,96282.97
2022-09-14T10:52:03.329Z,96256.09
2022-09-14T10:54:45.117Z,96269.41
2022-09-14T10:57:20.897Z,96287.03
2022-09-14T10:59:55.919Z,96303.91
2022-09-14T11:02:37.204Z,96321.91
2022-09-14T11:05:23.981Z,96314.78
2022-09-14T11:08:29.903Z,96302.88
2022-09-14T11:11:09.365Z,96304.03
2022-09-14T11:13:44.070Z,96304.69
2022-09-14T11:16:29.870Z,96310.31
2022-09-14T11:19:30.667Z,96301.34
2022-09-14T11:22:26.174Z,96307.03
2022-09-14T11:25:04.498Z,96312.78
2022-09-14T11:27:38.854Z,96312.31
2022-09-14T11:30:06.149Z,96309.06
2022-09-14T11:32:55.987Z,96320.31
2022-09-14T11:35:26.101Z,96341.25
2022-09-14T11:38:00.850Z,96355.06
2022-09-14T11:40:37.182Z,96358.44
2022-09-14T11:43:09.896Z,96352.28
2022-09-14T11:45:42.881Z,96336.41
2022-09-14T11:51:29.670Z,96312.66
2022-09-14T11:53:56.440Z,96325.38
2022-09-14T11:56:26.794Z,96311.63
2022-09-14T11:58:55.949Z,96312.56
2022-09-14T12:01:37.437Z,96309.94
2022-09-14T12:04:07.504Z,96304.53
2022-09-14T12:06:34.165Z,96308.75
2022-09-14T12:09:12.829Z,96305.38
2022-09-14T12:11:40.891Z,96307.50
2022-09-14T12:14:36.701Z,96314.97
2022-09-14T12:20:33.223Z,96299.94
2022-09-14T12:23:21.098Z,96299.13
2022-09-14T12:26:19.825Z,96294.97
2022-09-14T12:28:48.836Z,96294.34
2022-09-14T12:31:35.172Z,96286.13
2022-09-14T12:34:18.137Z,96285.44
2022-09-14T12:36:44.796Z,96287.56
2022-09-14T12:39:27.509Z,96289.81
2022-09-14T12:41:54.174Z,96286.34
2022-09-14T12:44:36.003Z,96276.41
2022-09-14T12:47:24.408Z,96286.03
2022-09-14T12:49:53.101Z,96265.09
2022-09-14T12:52:34.879Z,96271.25
2022-09-14T12:55:27.927Z,96275.94
2022-09-14T12:58:21.817Z,96267.53
2022-09-14T13:01:26.948Z,96253.84
2022-09-14T13:03:55.395Z,96254.13
2022-09-14T13:06:24.762Z,96252.13
2022-09-14T13:08:57.676Z,96245.13
2022-09-14T13:11:28.734Z,96238.75
2022-09-14T13:13:56.602Z,96233.97
2022-09-14T13:16:39.764Z,96225.03
2022-09-14T13:19:27.746Z,96219.53
2022-09-14T13:21:56.781Z,96228.13
2022-09-14T13:24:26.190Z,96217.84
2022-09-14T13:26:55.390Z,96220.72
2022-09-14T13:29:22.174Z,96217.25
2022-09-14T13:31:49.442Z,96208.22
2022-09-14T13:34:37.212Z,96208.25
2022-09-14T13:37:04.540Z,96200.69
2022-09-14T13:39:37.522Z,96202.13
2022-09-14T13:42:05.374Z,96207.09
2022-09-14T13:44:50.729Z,96205.88
2022-09-14T13:47:20.829Z,96206.72
2022-09-14T13:49:48.536Z,96201.22
2022-09-14T13:52:34.301Z,96185.88
2022-09-14T13:55:20.560Z,96190.03
2022-09-14T13:58:11.632Z,96195.56
2022-09-14T14:01:00.451Z,96178.06
2022-09-14T14:03:41.535Z,96174.66
2022-09-14T14:06:21.467Z,96177.44
2022-09-14T14:09:08.312Z,96174.00
2022-09-14T14:11:35.331Z,96165.63
2022-09-14T14:14:17.245Z,96171.88
2022-09-14T14:17:21.563Z,96166.22
2022-09-14T14:19:50.125Z,96159.88
2022-09-14T14:22:26.773Z,96163.34
2022-09-14T14:25:12.761Z,96168.88
2022-09-14T14:27:43.803Z,96162.63
2022-09-14T14:30:17.823Z,96157.78
2022-09-14T14:32:50.535Z,96145.25
2022-09-14T14:35:20.161Z,96140.47
2022-09-14T14:37:47.881Z,96135.78
2022-09-14T14:40:15.577Z,96131.03
2022-09-14T14:42:42.844Z,96125.41
2022-09-14T14:45:20.721Z,96128.06
2022-09-14T14:47:48.293Z,96120.91
2022-09-14T14:50:16.704Z,96127.84
2022-09-14T14:52:43.443Z,96129.97
2022-09-14T14:55:10.565Z,96120.91
2022-09-14T14:57:40.060Z,96123.63
2022-09-14T15:00:13.497Z,96129.72
2022-09-14T15:02:40.272Z,96136.56
2022-09-14T15:05:07.431Z,96125.34
2022-09-14T15:07:37.640Z,96118.44
2022-09-14T15:10:06.003Z,96114.41
2022-09-14T15:12:33.214Z,96104.69
2022-09-14T15:15:00.160Z,96108.94
2022-09-14T15:17:27.067Z,96101.97
2022-09-14T15:19:53.814Z,96106.81
2022-09-14T15:22:20.830Z,96120.63
2022-09-14T15:24:47.627Z,96108.88
2022-09-14T15:27:14.811Z,96119.44
2022-09-14T15:29:41.552Z,96118.03
2022-09-14T15:32:08.197Z,96118.44
2022-09-14T15:34:34.948Z,96114.53
2022-09-14T15:37:01.719Z,96108.84
2022-09-14T15:39:31.253Z,96109.00
2022-09-14T15:41:58.229Z,96106.63
2022-09-14T15:44:25.013Z,96096.06
2022-09-14T15:46:51.948Z,96093.13
2022-09-14T15:49:21.235Z,96096.00
2022-09-14T15:51:50.485Z,96114.66
2022-09-14T15:54:18.205Z,96116.78
2022-09-14T15:56:50.477Z,96119.34
2022-09-14T15:59:18.259Z,96103.50
2022-09-14T16:01:45.381Z,96101.63
2022-09-14T16:04:12.523Z,96104.22
2022-09-14T16:06:40.278Z,96105.72
2022-09-14T16:09:08.751Z,96121.59
2022-09-14T16:11:36.228Z,96123.13
2022-09-14T16:14:05.552Z,96136.69
2022-09-14T16:16:33.864Z,96142.84
2022-09-14T16:19:08.694Z,96144.44
2022-09-14T16:21:35.843Z,96139.47
2022-09-14T16:24:06.038Z,96134.34
2022-09-14T16:26:34.802Z,96122.63
2022-09-14T16:29:01.859Z,96117.47
2022-09-14T16:31:31.049Z,96110.13
2022-09-14T16:33:59.966Z,96109.97
2022-09-14T16:36:29.147Z,96117.56
2022-09-14T16:38:57.890Z,96109.38
2022-09-14T16:41:24.736Z,96102.56
2022-09-14T16:43:55.026Z,96109.28
2022-09-14T16:46:21.653Z,96116.41
2022-09-14T16:48:50.229Z,96117.88
2022-09-14T16:51:20.764Z,96123.47
2022-09-14T16:53:48.381Z,96119.13
2022-09-14T16:56:17.485Z,96128.00
2022-09-14T16:58:45.582Z,96134.47
2022-09-14T17:01:15.248Z,96134.19
2022-09-14T17:03:42.854Z,96133.69
2022-09-14T17:06:16.065Z,96116.25
2022-09-14T17:08:44.076Z,96101.66
2022-09-14T17:11:11.086Z,96100.28
2022-09-14T17:13:37.710Z,96108.69
2022-09-14T17:16:08.488Z,96110.75
2022-09-14T17:18:36.250Z,96130.25
2022-09-14T17:21:04.273Z,96140.63
2022-09-14T17:23:30.980Z,96125.25
2022-09-14T17:25:58.098Z,96123.84
2022-09-14T17:28:27.261Z,96105.66
2022-09-14T17:30:54.833Z,96111.19
2022-09-14T17:33:21.503Z,96104.88
2022-09-14T17:35:48.625Z,96096.50
2022-09-14T17:38:15.657Z,96109.66
2022-09-14T17:40:42.338Z,96091.44
2022-09-14T17:43:09.049Z,96099.00
2022-09-14T17:45:35.531Z,96100.19
2022-09-14T17:48:02.469Z,96104.94
2022-09-14T17:50:29.758Z,96096.38
2022-09-14T17:52:56.807Z,96101.06
2022-09-14T17:55:24.323Z,96102.19
2022-09-14T17:57:51.001Z,96109.56
2022-09-14T18:00:17.670Z,96114.84
2022-09-14T18:02:44.314Z,96116.72
2022-09-14T18:05:10.978Z,96112.47
2022-09-14T18:07:37.798Z,96110.31
2022-09-14T18:10:05.141Z,96103.97
2022-09-14T18:12:36.437Z,96105.91
2022-09-14T18:15:04.313Z,96120.34
2022-09-14T18:17:31.391Z,96121.69
2022-09-14T18:19:58.722Z,96127.88
2022-09-14T18:22:25.978Z,96124.25
2022-09-14T18:24:52.724Z,96131.13
2022-09-14T18:27:19.855Z,96133.94
2022-09-14T18:29:46.877Z,96147.91
2022-09-14T18:32:13.642Z,96163.34
2022-09-14T18:34:40.456Z,96150.28
2022-09-14T18:37:07.133Z,96150.41
2022-09-14T18:39:33.823Z,96158.75
2022-09-14T18:42:00.653Z,96165.75
2022-09-14T18:44:27.707Z,96168.56
2022-09-14T18:46:54.420Z,96168.41
2022-09-14T18:49:21.287Z,96156.56
2022-09-14T18:51:47.933Z,96149.72
2022-09-14T18:54:14.874Z,96157.34
2022-09-14T18:56:41.767Z,96148.25
2022-09-14T18:59:18.401Z,96140.47
2022-09-14T19:01:45.885Z,96122.41
2022-09-14T19:04:12.921Z,96126.44
2022-09-14T19:06:41.598Z,96123.63
2022-09-14T19:09:08.991Z,96123.53
2022-09-14T19:11:36.067Z,96126.28
2022-09-14T19:14:10.269Z,96117.97
2022-09-14T19:16:39.091Z,96110.97
2022-09-14T19:19:07.247Z,96095.63
2022-09-14T19:21:34.024Z,96101.81
2022-09-14T19:24:06.871Z,96118.84
2022-09-14T19:26:43.988Z,96122.13
2022-09-14T19:29:15.958Z,96122.13
2022-09-14T19:31:42.950Z,96128.44
2022-09-14T19:34:10.496Z,96131.94
2022-09-14T19:36:37.195Z,96127.84
2022-09-14T19:39:04.619Z,96126.47
2022-09-14T19:41:33.127Z,96126.44
2022-09-14T19:44:01.025Z,96126.28
2022-09-14T19:46:28.567Z,96124.78
2022-09-14T19:48:55.839Z,96116.34
2022-09-14T19:51:25.905Z,96124.53
2022-09-14T19:53:54.821Z,96123.81
2022-09-14T19:56:25.540Z,96128.56
2022-09-14T19:58:53.929Z,96127.19
2022-09-14T20:01:22.496Z,96120.38
2022-09-14T20:03:49.980Z,96120.41
2022-09-14T20:06:26.090Z,96118.88
2022-09-14T20:08:55.894Z,96117.50
2022-09-14T20:11:25.946Z,96120.28
2022-09-14T20:13:57.394Z,96117.59
2022-09-14T20:16:29.226Z,96116.97
2022-09-14T20:18:57.997Z,96123.88
2022-09-14T20:21:26.062Z,96129.53
2022-09-14T20:24:15.170Z,96135.91
2022-09-14T20:26:43.465Z,96149.34
2022-09-14T20:29:10.207Z,96146.50
2022-09-14T20:31:37.302Z,96151.47
2022-09-14T20:34:04.489Z,96171.75
2022-09-14T20:36:31.459Z,96185.19
2022-09-14T20:38:59.447Z,96190.88
2022-09-14T20:41:29.541Z,96206.91
2022-09-14T20:43:56.838Z,96202.06
2022-09-14T20:46:30.991Z,96211.16
2022-09-14T20:48:58.403Z,96236.97
2022-09-14T20:51:25.262Z,96223.66
2022-09-14T20:53:52.527Z,96207.53
2022-09-14T20:56:25.652Z,96196.34
2022-09-14T20:58:57.083Z,96185.88
2022-09-14T21:01:27.867Z,96165.81
2022-09-14T21:04:07.968Z,96175.53
2022-09-14T21:06:37.596Z,96159.47
2022-09-14T21:09:08.838Z,96173.97
2022-09-14T21:11:36.683Z,96198.53
2022-09-14T21:14:04.325Z,96202.44
2022-09-14T21:16:37.702Z,96192.78
2022-09-14T21:19:16.781Z,96195.59
2022-09-14T21:21:44.058Z,96210.22
2022-09-14T21:24:13.300Z,96213.56
2022-09-14T21:26:44.087Z,96221.88
2022-09-14T21:29:17.293Z,96220.50
2022-09-14T21:31:44.727Z,96216.38
2022-09-14T21:34:11.822Z,96219.16
2022-09-14T21:36:41.626Z,96223.84
2022-09-14T21:39:11.613Z,96223.72
2022-09-14T21:41:40.149Z,96219.59
2022-09-14T21:44:06.813Z,96236.25
2022-09-14T21:46:33.733Z,96234.75
2022-09-14T21:49:00.610Z,96234.03
2022-09-14T21:51:29.678Z,96231.94
2022-09-14T21:53:59.257Z,96227.03
2022-09-14T21:56:33.818Z,96235.25
2022-09-14T21:59:03.585Z,96222.13
2022-09-14T22:01:30.692Z,96221.38
2022-09-14T22:03:57.915Z,96222.56
2022-09-14T22:06:27.440Z,96219.56
2022-09-14T22:08:55.042Z,96212.69
2022-09-14T22:11:26.381Z,96211.94
2022-09-14T22:13:54.354Z,96223.69
2022-09-14T22:16:22.519Z,96221.72
2022-09-14T22:18:56.419Z,96221.03
2022-09-14T22:21:24.691Z,96217.53
2022-09-14T22:23:53.728Z,96226.50
2022-09-14T22:26:21.085Z,96225.09
2022-09-14T22:28:49.131Z,96228.56
2022-09-14T22:31:17.866Z,96232.03
2022-09-14T22:33:44.806Z,96237.66
2022-09-14T22:36:11.995Z,96238.34
2022-09-14T22:38:40.990Z,96241.84
2022-09-14T22:41:15.227Z,96228.03
2022-09-14T22:43:42.031Z,96224.63
2022-09-14T22:46:09.058Z,96235.13
2022-09-14T22:48:36.625Z,96237.91
2022-09-14T22:51:05.049Z,96247.59
2022-09-14T22:53:31.976Z,96247.03
2022-09-14T22:55:58.723Z,96257.31
2022-09-14T22:58:27.202Z,96253.00
2022-09-14T23:00:54.022Z,96255.53
2022-09-14T23:03:21.203Z,96257.47
2022-09-14T23:05:53.061Z,96259.34
2022-09-14T23:08:20.207Z,96271.25
2022-09-14T23:10:48.040Z,96264.97
2022-09-14T23:13:15.826Z,96259.28
2022-09-14T23:15:42.894Z,96258.53
2022-09-14T23:18:10.030Z,96269.53
2022-09-14T23:20:41.381Z,96259.66
2022-09-14T23:23:08.327Z,96255.56
2022-09-14T23:25:36.082Z,96243.16
2022-09-14T23:28:04.075Z,96234.06
2022-09-14T23:30:31.410Z,96242.91
2022-09-14T23:32:59.315Z,96256.63
2022-09-14T23:35:27.026Z,96261.25
2022-09-14T23:37:54.269Z,96270.88
2022-09-14T23:40:21.337Z,96261.97
2022-09-14T23:42:48.141Z,96257.91
2022-09-14T23:45:15.306Z,96258.63
2022-09-14T23:47:42.200Z,96266.97
2022-09-14T23:50:09.305Z,96249.75
2022-09-14T23:52:36.921Z,96238.72
2022-09-14T23:55:04.361Z,96239.34
2022-09-14T23:57:31.078Z,96248.31
2022-09-14T23:59:58.589Z,96248.31
